createdAt,value
2023-05-22T00:00:13.551Z,7.25
2023-05-22T00:05:15.090Z,7.38
2023-05-22T00:10:14.014Z,7.82
2023-05-22T00:15:12.910Z,7.90
2023-05-22T00:20:12.096Z,7.57
2023-05-22T00:25:11.385Z,7.80
2023-05-22T00:30:10.701Z,7.70
2023-05-22T00:35:09.963Z,8.55
2023-05-22T00:40:09.485Z,8.63
2023-05-22T00:45:11.199Z,8.13
2023-05-22T00:50:12.016Z,8.68
2023-05-22T00:55:12.564Z,8.63
2023-05-22T01:00:13.687Z,7.97
2023-05-22T01:05:13.472Z,7.93
2023-05-22T01:10:12.412Z,8.00
2023-05-22T01:15:31.513Z,8.38
2023-05-22T01:20:41.842Z,8.35
2023-05-22T01:25:59.740Z,8.30
2023-05-22T01:31:08.253Z,8.73
2023-05-22T01:36:08.814Z,8.50
2023-05-22T01:41:07.752Z,8.45
2023-05-22T01:46:06.958Z,9.73
2023-05-22T01:51:16.991Z,7.93
2023-05-22T01:56:23.041Z,8.30
2023-05-22T02:01:27.403Z,8.57
2023-05-22T02:06:29.178Z,9.20
2023-05-22T02:11:31.109Z,9.25
2023-05-22T02:16:30.292Z,8.63
2023-05-22T02:21:29.364Z,9.48
2023-05-22T02:26:28.887Z,9.88
2023-05-22T02:31:27.952Z,8.45
2023-05-22T02:36:30.939Z,8.80
2023-05-22T02:41:30.553Z,8.75
2023-05-22T02:46:29.496Z,8.27
2023-05-22T02:51:28.913Z,8.35
2023-05-22T02:56:29.029Z,7.97
2023-05-22T03:01:30.582Z,8.80
2023-05-22T03:06:29.775Z,7.80
2023-05-22T03:11:28.786Z,8.98
2023-05-22T03:16:28.256Z,8.85
2023-05-22T03:21:27.203Z,8.32
2023-05-22T03:26:28.479Z,8.82
2023-05-22T03:31:31.516Z,9.07
2023-05-22T03:36:39.328Z,9.93
2023-05-22T03:41:38.143Z,9.00
2023-05-22T03:46:38.073Z,8.77
2023-05-22T03:51:37.995Z,9.98
2023-05-22T03:56:37.558Z,9.48
2023-05-22T04:01:39.515Z,10.35
2023-05-22T04:06:44.872Z,9.65
2023-05-22T04:11:46.520Z,9.27
2023-05-22T04:16:45.440Z,9.75
2023-05-22T04:21:45.343Z,10.63
2023-05-22T04:27:10.174Z,9.40
2023-05-22T04:32:10.718Z,8.98
2023-05-22T04:37:10.509Z,7.93
2023-05-22T04:42:09.715Z,6.75
2023-05-22T04:47:14.594Z,7.05
2023-05-22T04:52:13.508Z,7.20
2023-05-22T04:57:12.544Z,7.22
2023-05-22T05:02:11.857Z,6.93
2023-05-22T05:07:10.877Z,7.57
2023-05-22T05:12:09.900Z,7.05
2023-05-22T05:17:08.784Z,7.55
2023-05-22T05:22:07.687Z,6.82
2023-05-22T05:27:06.665Z,6.60
2023-05-22T05:32:08.093Z,7.47
2023-05-22T05:37:17.784Z,6.70
2023-05-22T05:42:20.071Z,6.50
2023-05-22T05:47:24.125Z,7.03
2023-05-22T05:52:27.200Z,6.30
2023-05-22T05:57:27.664Z,6.43
2023-05-22T06:02:28.145Z,6.38
2023-05-22T06:07:30.138Z,6.57
2023-05-22T06:12:29.906Z,6.95
2023-05-22T06:17:28.893Z,6.22
2023-05-22T06:22:29.338Z,6.25
2023-05-22T06:27:28.995Z,6.32
2023-05-22T06:32:28.253Z,6.30
2023-05-22T06:37:27.456Z,5.53
2023-05-22T06:42:27.247Z,6.18
2023-05-22T06:47:55.579Z,6.53
2023-05-22T06:52:55.281Z,6.05
2023-05-22T06:57:54.461Z,5.43
2023-05-22T07:02:53.620Z,5.00
2023-05-22T07:07:58.385Z,5.63
2023-05-22T07:12:58.368Z,5.00
2023-05-22T07:17:57.791Z,5.70
2023-05-22T07:22:58.340Z,5.45
2023-05-22T07:27:58.542Z,4.57
2023-05-22T07:32:58.118Z,4.72
2023-05-22T07:37:57.946Z,4.78
2023-05-22T07:42:57.689Z,4.78
2023-05-22T07:47:59.055Z,5.85
2023-05-22T07:52:58.321Z,5.22
2023-05-22T07:57:58.141Z,4.93
2023-05-22T08:03:06.072Z,4.28
2023-05-22T08:08:05.179Z,5.40
2023-05-22T08:13:06.389Z,4.65
2023-05-22T08:18:05.269Z,4.85
2023-05-22T08:23:04.725Z,3.85
2023-05-22T08:28:03.795Z,3.78
2023-05-22T08:33:03.221Z,3.95
2023-05-22T08:38:02.841Z,3.80
2023-05-22T08:43:01.914Z,3.25
2023-05-22T08:48:06.026Z,2.95
2023-05-22T08:53:08.179Z,3.33
2023-05-22T09:03:10.247Z,3.35
2023-05-22T09:08:19.599Z,3.50
2023-05-22T09:13:31.030Z,3.60
2023-05-22T09:18:30.345Z,4.40
2023-05-22T09:23:29.805Z,4.13
2023-05-22T09:28:35.373Z,4.28
2023-05-22T09:33:37.564Z,4.90
2023-05-22T09:38:36.752Z,4.50
2023-05-22T09:43:35.796Z,4.55
2023-05-22T09:48:36.795Z,4.90
2023-05-22T09:53:37.040Z,4.70
2023-05-22T09:58:41.138Z,4.70
2023-05-22T10:03:42.684Z,4.43
2023-05-22T10:08:52.010Z,4.47
2023-05-22T10:13:51.815Z,4.47
2023-05-22T10:18:51.457Z,4.80
2023-05-22T10:23:52.141Z,4.53
2023-05-22T10:28:58.015Z,4.05
2023-05-22T10:34:01.605Z,4.30
2023-05-22T10:39:31.038Z,4.50
2023-05-22T10:44:30.237Z,3.97
2023-05-22T10:49:29.483Z,4.38
2023-05-22T10:54:42.498Z,4.00
2023-05-22T10:59:41.569Z,3.92
2023-05-22T11:04:40.588Z,4.93
2023-05-22T11:09:48.881Z,5.28
2023-05-22T11:14:49.519Z,3.92
2023-05-22T11:19:57.860Z,3.90
2023-05-22T11:24:56.934Z,4.22
2023-05-22T11:29:56.692Z,4.03
2023-05-22T11:34:57.467Z,3.67
2023-05-22T11:39:58.482Z,3.75
2023-05-22T11:44:57.572Z,4.20
2023-05-22T11:50:00.181Z,4.38
2023-05-22T11:54:59.565Z,3.88
2023-05-22T11:59:59.162Z,3.90
2023-05-22T12:04:58.700Z,3.92
2023-05-22T12:09:58.560Z,3.65
2023-05-22T12:14:57.867Z,3.80
2023-05-22T12:19:57.980Z,4.22
2023-05-22T12:24:56.982Z,4.00
2023-05-22T12:29:57.904Z,3.60
2023-05-22T12:34:58.271Z,4.05
2023-05-22T12:39:59.113Z,3.97
2023-05-22T12:45:00.143Z,4.15
2023-05-22T12:49:58.941Z,3.58
2023-05-22T12:54:57.943Z,3.88
2023-05-22T12:59:56.812Z,3.72
2023-05-22T13:04:56.242Z,4.32
2023-05-22T13:09:55.293Z,3.90
2023-05-22T13:14:54.081Z,4.07
2023-05-22T13:19:55.229Z,4.28
2023-05-22T13:24:54.475Z,3.90
2023-05-22T13:29:53.764Z,3.70
2023-05-22T13:34:53.298Z,3.70
2023-05-22T13:39:55.190Z,4.50
2023-05-22T13:44:54.004Z,3.88
2023-05-22T13:49:52.992Z,4.25
2023-05-22T13:54:52.514Z,4.20
2023-05-22T13:59:51.413Z,4.15
2023-05-22T14:04:52.089Z,4.53
2023-05-22T14:09:51.113Z,3.53
2023-05-22T14:14:53.168Z,3.78
2023-05-22T14:19:52.365Z,3.90
2023-05-22T14:24:51.529Z,4.03
2023-05-22T14:29:50.664Z,3.63
2023-05-22T14:34:49.708Z,3.88
2023-05-22T14:39:48.650Z,3.58
2023-05-22T14:44:48.012Z,4.60
2023-05-22T14:49:46.812Z,4.13
2023-05-22T14:54:45.963Z,3.70
2023-05-22T14:59:45.177Z,4.20
2023-05-22T15:04:45.896Z,3.65
2023-05-22T15:09:45.135Z,3.63
2023-05-22T15:14:44.086Z,3.70
2023-05-22T15:19:45.370Z,3.83
2023-05-22T15:24:44.543Z,3.88
2023-05-22T15:29:43.412Z,3.75
2023-05-22T15:34:42.335Z,3.15
2023-05-22T15:39:41.407Z,3.25
2023-05-22T15:44:40.248Z,3.63
2023-05-22T15:49:39.025Z,3.63
2023-05-22T15:54:37.983Z,3.35
2023-05-22T15:59:36.986Z,3.72
2023-05-22T16:04:36.220Z,3.75
2023-05-22T16:09:36.146Z,3.55
2023-05-22T16:14:35.028Z,5.47
2023-05-22T16:19:34.432Z,4.10
2023-05-22T16:24:33.670Z,3.45
2023-05-22T16:29:32.815Z,3.58
2023-05-22T16:34:33.883Z,3.30
2023-05-22T16:39:32.932Z,3.30
2023-05-22T16:44:32.134Z,3.60
2023-05-22T16:49:30.872Z,3.75
2023-05-22T16:54:29.737Z,3.33
2023-05-22T16:59:28.592Z,3.83
2023-05-22T17:04:27.581Z,3.65
2023-05-22T17:09:27.687Z,3.03
2023-05-22T17:14:26.788Z,3.63
2023-05-22T17:19:25.878Z,3.75
2023-05-22T17:24:25.348Z,3.65
2023-05-22T17:29:26.082Z,4.28
2023-05-22T17:34:26.722Z,4.07
2023-05-22T17:39:25.788Z,3.60
2023-05-22T17:44:25.818Z,3.67
2023-05-22T17:49:24.597Z,3.63
2023-05-22T17:54:23.642Z,3.63
2023-05-22T17:59:22.440Z,3.45
2023-05-22T18:04:21.288Z,4.28
2023-05-22T18:09:20.354Z,3.45
2023-05-22T18:14:19.430Z,3.58
2023-05-22T18:19:18.368Z,3.40
2023-05-22T18:24:17.183Z,3.67
2023-05-22T18:29:16.059Z,3.60
2023-05-22T18:34:14.968Z,3.40
2023-05-22T18:39:14.896Z,4.03
2023-05-22T18:44:14.075Z,3.95
2023-05-22T18:49:13.004Z,3.83
2023-05-22T18:54:11.750Z,3.33
2023-05-22T18:59:10.576Z,3.63
2023-05-22T19:04:09.576Z,3.30
2023-05-22T19:09:12.570Z,3.60
2023-05-22T19:14:11.790Z,4.95
2023-05-22T19:19:11.713Z,3.85
2023-05-22T19:24:10.915Z,3.78
2023-05-22T19:29:09.898Z,3.70
2023-05-22T19:34:08.854Z,3.70
2023-05-22T19:39:07.703Z,3.70
2023-05-22T19:44:06.663Z,3.78
2023-05-22T19:49:05.649Z,3.75
2023-05-22T19:54:04.943Z,4.22
2023-05-22T19:59:03.825Z,4.15
2023-05-22T20:04:02.817Z,3.72
2023-05-22T20:09:02.498Z,3.78
2023-05-22T20:14:02.546Z,4.15
2023-05-22T20:19:02.571Z,3.50
2023-05-22T20:24:04.966Z,4.15
2023-05-22T20:29:03.873Z,3.63
2023-05-22T20:34:03.954Z,3.70
2023-05-22T20:39:03.144Z,4.00
2023-05-22T20:44:02.636Z,4.82
2023-05-22T20:49:02.971Z,4.40
2023-05-22T20:54:01.714Z,4.85
2023-05-22T20:59:00.709Z,4.35
2023-05-22T21:03:59.603Z,4.60
2023-05-22T21:09:01.747Z,4.20
2023-05-22T21:14:00.870Z,3.97
2023-05-22T21:18:59.983Z,3.88
2023-05-22T21:23:58.953Z,6.20
2023-05-22T21:28:57.737Z,6.32
2023-05-22T21:33:56.637Z,4.63
2023-05-22T21:39:05.724Z,5.15
2023-05-22T21:44:04.815Z,4.47
2023-05-22T21:49:04.831Z,6.25
2023-05-22T21:54:03.888Z,4.60
2023-05-22T21:59:03.385Z,4.28
2023-05-22T22:04:02.282Z,4.47
2023-05-22T22:09:03.439Z,4.18
2023-05-22T22:14:02.379Z,4.95
2023-05-22T22:19:05.054Z,4.00
2023-05-22T22:24:07.272Z,4.30
2023-05-22T22:29:06.323Z,4.95
2023-05-22T22:34:06.162Z,3.70
2023-05-22T22:39:05.123Z,3.97
2023-05-22T22:44:03.958Z,4.28
2023-05-22T22:49:02.815Z,4.00
2023-05-22T22:54:01.642Z,4.95
2023-05-22T22:59:00.659Z,3.95
2023-05-22T23:03:59.629Z,4.72
2023-05-22T23:08:59.775Z,4.32
2023-05-22T23:13:58.783Z,4.40
2023-05-22T23:18:57.656Z,3.97
2023-05-22T23:23:56.655Z,4.13
2023-05-22T23:28:55.679Z,4.05
2023-05-22T23:33:55.313Z,4.78
2023-05-22T23:38:54.087Z,4.88
2023-05-22T23:43:52.948Z,4.07
2023-05-22T23:48:51.790Z,4.28
2023-05-22T23:53:50.536Z,3.88
2023-05-22T23:58:49.345Z,4.40
